createdAt,value
2018-02-04T00:02:25.515Z,16.40
2018-02-04T00:04:52.133Z,16.03
2018-02-04T00:07:18.758Z,15.80
2018-02-04T00:09:45.418Z,18.13
2018-02-04T00:12:12.031Z,15.13
2018-02-04T00:14:38.705Z,16.30
2018-02-04T00:17:05.688Z,14.63
2018-02-04T00:19:32.355Z,14.90
2018-02-04T00:21:58.999Z,14.40
2018-02-04T00:24:25.591Z,14.77
2018-02-04T00:26:52.377Z,14.87
2018-02-04T00:29:18.991Z,15.20
2018-02-04T00:31:45.646Z,14.70
2018-02-04T00:34:12.246Z,15.90
2018-02-04T00:36:38.879Z,14.70
2018-02-04T00:39:05.488Z,14.60
2018-02-04T00:41:32.098Z,15.93
2018-02-04T00:43:58.692Z,12.87
2018-02-04T00:46:25.351Z,13.30
2018-02-04T00:48:51.937Z,13.77
2018-02-04T00:51:19.992Z,13.70
2018-02-04T00:53:46.607Z,14.20
2018-02-04T00:56:13.199Z,14.87
2018-02-04T00:58:39.828Z,15.20
2018-02-04T01:01:06.432Z,13.20
2018-02-04T01:03:33.042Z,13.83
2018-02-04T01:05:59.644Z,14.07
2018-02-04T01:08:26.271Z,13.80
2018-02-04T01:10:52.852Z,14.73
2018-02-04T01:13:19.478Z,13.17
2018-02-04T01:15:46.081Z,13.33
2018-02-04T01:18:12.698Z,13.90
2018-02-04T01:20:39.288Z,14.10
2018-02-04T01:23:05.922Z,13.57
2018-02-04T01:25:32.642Z,13.30
2018-02-04T01:27:59.303Z,13.77
2018-02-04T01:30:25.935Z,13.10
2018-02-04T01:32:52.533Z,12.80
2018-02-04T01:35:19.174Z,14.40
2018-02-04T01:37:45.813Z,13.50
2018-02-04T01:40:12.426Z,13.27
2018-02-04T01:42:39.048Z,12.53
2018-02-04T01:45:05.667Z,13.37
2018-02-04T01:47:32.276Z,13.60
2018-02-04T01:49:58.907Z,15.20
2018-02-04T01:52:25.522Z,14.33
2018-02-04T01:54:52.112Z,13.80
2018-02-04T01:57:18.752Z,13.73
2018-02-04T01:59:45.407Z,14.07
2018-02-04T02:02:12.027Z,13.80
2018-02-04T02:04:38.668Z,12.50
2018-02-04T02:07:05.282Z,12.17
2018-02-04T02:09:31.905Z,12.53
2018-02-04T02:11:58.686Z,13.50
2018-02-04T02:14:25.623Z,12.60
2018-02-04T02:16:52.240Z,12.13
2018-02-04T02:19:18.920Z,12.77
2018-02-04T02:21:45.536Z,12.13
2018-02-04T02:24:12.244Z,12.00
2018-02-04T02:26:38.828Z,12.07
2018-02-04T02:29:05.454Z,12.23
2018-02-04T02:31:32.077Z,12.23
2018-02-04T02:33:58.676Z,14.07
2018-02-04T02:36:25.351Z,12.53
2018-02-04T02:38:51.919Z,11.70
2018-02-04T02:41:18.672Z,12.90
2018-02-04T02:43:45.317Z,12.63
2018-02-04T02:46:11.913Z,13.43
2018-02-04T02:48:38.552Z,12.50
2018-02-04T02:51:05.150Z,11.57
2018-02-04T02:53:31.792Z,12.90
2018-02-04T02:55:58.393Z,12.10
2018-02-04T02:58:25.011Z,12.87
2018-02-04T03:00:51.644Z,12.57
2018-02-04T03:03:18.287Z,13.40
2018-02-04T03:05:44.913Z,12.17
2018-02-04T03:08:11.539Z,11.10
2018-02-04T03:10:38.151Z,12.40
2018-02-04T03:13:04.942Z,12.80
2018-02-04T03:15:31.585Z,11.83
2018-02-04T03:17:58.190Z,11.43
2018-02-04T03:20:24.812Z,12.90
2018-02-04T03:22:51.414Z,12.20
2018-02-04T03:25:18.080Z,12.90
2018-02-04T03:27:44.668Z,11.40
2018-02-04T03:30:11.288Z,11.90
2018-02-04T03:32:37.911Z,12.83
2018-02-04T03:35:05.429Z,12.13
2018-02-04T03:37:32.040Z,14.47
2018-02-04T03:39:58.712Z,13.60
2018-02-04T03:42:25.304Z,13.00
2018-02-04T03:44:51.920Z,13.97
2018-02-04T03:47:18.518Z,13.33
2018-02-04T03:49:45.373Z,13.17
2018-02-04T03:52:11.963Z,13.70
2018-02-04T03:54:38.574Z,12.57
2018-02-04T03:57:05.207Z,13.37
2018-02-04T03:59:31.806Z,13.20
2018-02-04T04:01:58.440Z,13.40
2018-02-04T04:04:25.248Z,14.33
2018-02-04T04:06:52.064Z,13.10
2018-02-04T04:09:18.747Z,11.90
2018-02-04T04:11:45.367Z,12.53
2018-02-04T04:14:11.986Z,13.40
2018-02-04T04:16:38.798Z,14.00
2018-02-04T04:19:05.647Z,12.90
2018-02-04T04:21:32.255Z,13.40
2018-02-04T04:23:59.014Z,14.00
2018-02-04T04:26:25.611Z,13.40
2018-02-04T04:28:52.209Z,13.50
2018-02-04T04:31:18.836Z,13.80
2018-02-04T04:33:45.471Z,13.53
2018-02-04T04:36:12.106Z,12.40
2018-02-04T04:38:38.851Z,13.73
2018-02-04T04:41:05.513Z,12.73
2018-02-04T04:43:32.108Z,14.97
2018-02-04T04:45:58.748Z,13.37
2018-02-04T04:48:25.357Z,12.97
2018-02-04T04:50:51.966Z,13.60
2018-02-04T04:53:18.648Z,13.90
2018-02-04T04:55:45.297Z,12.80
2018-02-04T04:58:11.902Z,14.43
2018-02-04T05:00:38.512Z,13.07
2018-02-04T05:03:05.256Z,12.57
2018-02-04T05:05:31.859Z,13.00
2018-02-04T05:07:58.486Z,14.23
2018-02-04T05:10:25.088Z,13.07
2018-02-04T05:12:51.718Z,13.07
2018-02-04T05:15:18.327Z,13.43
2018-02-04T05:17:45.030Z,14.30
2018-02-04T05:20:11.596Z,13.53
2018-02-04T05:22:38.202Z,13.53
2018-02-04T05:25:04.808Z,13.40
2018-02-04T05:27:31.430Z,12.67
2018-02-04T05:29:58.038Z,11.70
2018-02-04T05:32:24.649Z,10.17
2018-02-04T05:34:51.269Z,10.97
2018-02-04T05:37:17.875Z,12.50
2018-02-04T05:39:44.502Z,10.47
2018-02-04T05:42:11.108Z,11.17
2018-02-04T05:44:37.720Z,10.83
2018-02-04T05:47:04.332Z,10.33
2018-02-04T05:49:30.938Z,10.60
2018-02-04T05:51:58.501Z,10.17
2018-02-04T05:54:25.099Z,11.37
2018-02-04T05:56:51.722Z,10.77
2018-02-04T05:59:18.337Z,10.17
2018-02-04T06:01:44.944Z,12.30
2018-02-04T06:04:11.881Z,12.00
2018-02-04T06:06:38.752Z,12.40
2018-02-04T06:09:05.378Z,11.47
2018-02-04T06:11:31.984Z,11.20
2018-02-04T06:13:58.616Z,11.47
2018-02-04T06:16:25.239Z,12.63
2018-02-04T06:18:51.857Z,12.73
2018-02-04T06:21:18.466Z,13.53
2018-02-04T06:23:45.295Z,14.40
2018-02-04T06:26:11.918Z,15.13
2018-02-04T06:28:38.557Z,14.70
2018-02-04T06:31:05.162Z,14.40
2018-02-04T06:33:31.826Z,13.77
2018-02-04T06:35:58.435Z,13.90
2018-02-04T06:38:25.068Z,14.67
2018-02-04T06:40:51.666Z,14.03
2018-02-04T06:43:18.285Z,14.37
2018-02-04T06:45:44.904Z,16.47
2018-02-04T06:48:11.517Z,13.60
2018-02-04T06:50:38.189Z,13.33
2018-02-04T06:53:04.909Z,14.87
2018-02-04T06:55:31.501Z,13.10
2018-02-04T06:57:58.114Z,13.47
2018-02-04T07:00:24.732Z,14.40
2018-02-04T07:02:52.004Z,13.23
2018-02-04T07:05:18.631Z,12.73
2018-02-04T07:07:45.232Z,15.70
2018-02-04T07:10:14.877Z,14.60
2018-02-04T07:12:41.503Z,12.70
2018-02-04T07:15:08.243Z,12.47
2018-02-04T07:17:34.876Z,12.87
2018-02-04T07:20:01.495Z,12.77
2018-02-04T07:22:28.125Z,12.07
2018-02-04T07:24:54.721Z,13.40
2018-02-04T07:27:21.335Z,13.53
2018-02-04T07:29:47.950Z,11.47
2018-02-04T07:32:14.595Z,12.40
2018-02-04T07:34:41.189Z,12.60
2018-02-04T07:37:07.800Z,12.40
2018-02-04T07:39:34.479Z,11.97
2018-02-04T07:42:01.079Z,12.37
2018-02-04T07:44:27.864Z,13.00
2018-02-04T07:46:54.434Z,12.37
2018-02-04T07:49:21.169Z,11.57
2018-02-04T07:51:47.826Z,12.70
2018-02-04T07:54:14.462Z,11.47
2018-02-04T07:56:41.164Z,11.43
2018-02-04T07:59:07.806Z,10.47
2018-02-04T08:01:34.476Z,12.47
2018-02-04T08:04:01.119Z,12.17
2018-02-04T08:06:27.755Z,14.50
2018-02-04T08:08:54.414Z,13.97
2018-02-04T08:11:21.112Z,14.27
2018-02-04T08:13:47.777Z,13.87
2018-02-04T08:16:14.383Z,12.87
2018-02-04T08:18:41.000Z,13.17
2018-02-04T08:21:07.580Z,13.10
2018-02-04T08:23:34.186Z,14.90
2018-02-04T08:26:00.816Z,11.87
2018-02-04T08:28:27.443Z,12.07
2018-02-04T08:30:54.047Z,13.60
2018-02-04T08:33:20.651Z,14.13
2018-02-04T08:35:47.278Z,13.57
2018-02-04T08:38:13.919Z,14.33
2018-02-04T08:40:40.533Z,12.67
2018-02-04T08:43:07.210Z,13.30
2018-02-04T08:45:33.823Z,12.17
2018-02-04T08:48:00.449Z,12.17
2018-02-04T08:50:27.052Z,11.23
2018-02-04T08:52:53.663Z,12.50
2018-02-04T08:55:20.393Z,12.73
2018-02-04T08:57:47.000Z,12.13
2018-02-04T09:00:13.670Z,12.03
2018-02-04T09:02:40.270Z,13.47
2018-02-04T09:05:06.886Z,13.17
2018-02-04T09:07:33.481Z,12.93
2018-02-04T09:10:00.116Z,12.90
2018-02-04T09:12:26.726Z,14.10
2018-02-04T09:14:53.355Z,13.77
2018-02-04T09:17:20.012Z,14.43
2018-02-04T09:19:46.677Z,14.90
2018-02-04T09:22:13.296Z,13.73
2018-02-04T09:24:39.932Z,13.27
2018-02-04T09:27:06.564Z,13.10
2018-02-04T09:29:33.192Z,13.73
2018-02-04T09:31:59.848Z,14.03
2018-02-04T09:34:26.466Z,13.87
2018-02-04T09:36:53.104Z,13.23
2018-02-04T09:39:19.756Z,14.40
2018-02-04T09:41:46.407Z,12.87
2018-02-04T09:44:13.041Z,11.27
2018-02-04T09:46:39.656Z,11.13
2018-02-04T09:49:06.530Z,11.47
2018-02-04T09:51:33.135Z,12.00
2018-02-04T09:54:00.088Z,12.13
2018-02-04T09:56:26.784Z,12.07
2018-02-04T09:58:53.399Z,11.73
2018-02-04T10:01:20.013Z,10.67
2018-02-04T10:03:46.619Z,10.43
2018-02-04T10:06:13.247Z,10.20
2018-02-04T10:08:40.227Z,11.63
2018-02-04T10:11:06.858Z,11.33
2018-02-04T10:13:33.492Z,11.10
2018-02-04T10:16:00.129Z,11.63
2018-02-04T10:18:26.727Z,10.93
2018-02-04T10:20:53.372Z,11.60
2018-02-04T10:23:20.039Z,11.53
2018-02-04T10:25:46.628Z,10.47
2018-02-04T10:28:13.419Z,9.20
2018-02-04T10:30:40.084Z,11.77
2018-02-04T10:33:06.636Z,11.07
2018-02-04T10:35:33.271Z,11.17
2018-02-04T10:37:59.857Z,9.57
2018-02-04T10:40:26.526Z,9.77
2018-02-04T10:42:53.187Z,9.37
2018-02-04T10:45:19.853Z,10.53
2018-02-04T10:47:46.485Z,10.20
2018-02-04T10:50:13.177Z,11.23
2018-02-04T10:52:39.835Z,11.93
2018-02-04T10:55:06.507Z,10.40
2018-02-04T10:57:33.117Z,11.53
2018-02-04T10:59:59.761Z,10.60
2018-02-04T11:02:26.412Z,11.33
2018-02-04T11:04:54.795Z,10.73
2018-02-04T11:07:21.486Z,12.40
2018-02-04T11:09:48.190Z,11.83
2018-02-04T11:12:14.993Z,12.03
2018-02-04T11:14:41.713Z,9.87
2018-02-04T11:17:08.411Z,11.37
2018-02-04T11:19:35.080Z,7.80
2018-02-04T11:22:01.748Z,12.10
2018-02-04T11:24:28.422Z,11.30
2018-02-04T11:26:55.039Z,11.20
2018-02-04T11:29:21.685Z,11.80
2018-02-04T11:31:51.300Z,10.37
2018-02-04T11:34:17.933Z,12.43
2018-02-04T11:36:44.565Z,12.17
2018-02-04T11:39:11.217Z,12.00
2018-02-04T11:41:37.889Z,11.77
2018-02-04T11:44:04.480Z,10.40
2018-02-04T11:46:31.113Z,11.70
2018-02-04T11:48:57.756Z,12.40
2018-02-04T11:51:24.412Z,9.80
2018-02-04T11:53:51.226Z,9.80
2018-02-04T11:56:18.184Z,10.17
2018-02-04T11:58:45.007Z,10.10
2018-02-04T12:01:11.606Z,10.20
2018-02-04T12:03:38.254Z,9.60
2018-02-04T12:06:04.890Z,6.60
2018-02-04T12:08:31.877Z,8.77
2018-02-04T12:10:58.509Z,9.10
2018-02-04T12:13:25.117Z,8.87
2018-02-04T12:15:51.747Z,9.87
2018-02-04T12:18:18.384Z,9.10
2018-02-04T12:20:45.035Z,9.93
2018-02-04T12:23:11.652Z,9.20
2018-02-04T12:25:38.248Z,9.07
2018-02-04T12:28:05.346Z,9.30
2018-02-04T12:30:31.980Z,9.30
2018-02-04T12:32:58.933Z,10.43
2018-02-04T12:35:25.596Z,8.60
2018-02-04T12:37:52.231Z,9.70
2018-02-04T12:40:18.834Z,8.87
2018-02-04T12:42:45.626Z,9.40
2018-02-04T12:45:12.277Z,10.20
2018-02-04T12:47:38.971Z,8.40
2018-02-04T12:50:05.561Z,10.57
2018-02-04T12:52:32.215Z,11.37
2018-02-04T12:54:58.832Z,10.40
2018-02-04T12:57:25.434Z,12.43
2018-02-04T12:59:52.109Z,11.40
2018-02-04T13:02:18.763Z,11.20
2018-02-04T13:04:45.403Z,11.80
2018-02-04T13:07:12.067Z,11.50
2018-02-04T13:09:38.744Z,10.90
2018-02-04T13:12:05.651Z,8.67
2018-02-04T13:14:32.304Z,11.73
2018-02-04T13:16:59.004Z,11.37
2018-02-04T13:19:25.617Z,11.40
2018-02-04T13:21:52.248Z,10.30
2018-02-04T13:24:18.888Z,11.23
2018-02-04T13:26:45.504Z,13.70
2018-02-04T13:29:12.601Z,10.23
2018-02-04T13:31:39.282Z,9.50
2018-02-04T13:34:05.953Z,12.67
2018-02-04T13:36:32.628Z,13.07
2018-02-04T13:38:59.270Z,11.27
2018-02-04T13:41:25.957Z,12.30
2018-02-04T13:43:52.660Z,11.73
2018-02-04T13:46:19.462Z,11.80
2018-02-04T13:48:46.092Z,12.00
2018-02-04T13:51:12.708Z,11.87
2018-02-04T13:53:39.440Z,11.80
2018-02-04T13:56:06.267Z,12.20
2018-02-04T13:58:32.904Z,11.20
2018-02-04T14:00:59.481Z,10.10
2018-02-04T14:03:26.191Z,11.87
2018-02-04T14:05:52.826Z,11.43
2018-02-04T14:08:19.456Z,12.40
2018-02-04T14:10:46.140Z,11.70
2018-02-04T14:13:12.749Z,10.80
2018-02-04T14:15:39.641Z,11.43
2018-02-04T14:18:06.249Z,12.00
2018-02-04T14:20:32.954Z,12.20
2018-02-04T14:22:59.744Z,11.63
2018-02-04T14:25:26.451Z,11.00
2018-02-04T14:27:53.080Z,11.60
2018-02-04T14:30:19.702Z,8.53
2018-02-04T14:32:46.438Z,10.40
2018-02-04T14:35:13.084Z,11.57
2018-02-04T14:37:39.780Z,9.30
2018-02-04T14:40:06.455Z,10.37
2018-02-04T14:42:33.104Z,10.77
2018-02-04T14:44:59.705Z,10.90
2018-02-04T14:47:26.338Z,11.67
2018-02-04T14:49:52.943Z,10.53
2018-02-04T14:52:19.603Z,12.47
2018-02-04T14:54:46.372Z,10.47
2018-02-04T14:57:13.069Z,11.60
2018-02-04T14:59:39.706Z,11.20
2018-02-04T15:02:06.341Z,9.90
2018-02-04T15:04:32.980Z,10.33
2018-02-04T15:06:59.613Z,12.40
2018-02-04T15:09:26.247Z,11.37
2018-02-04T15:11:52.855Z,10.17
2018-02-04T15:14:19.594Z,11.97
2018-02-04T15:16:46.266Z,11.37
2018-02-04T15:19:12.948Z,10.87
2018-02-04T15:21:39.586Z,12.10
2018-02-04T15:24:08.217Z,10.40
2018-02-04T15:26:35.159Z,10.67
2018-02-04T15:29:01.836Z,11.60
2018-02-04T15:31:28.510Z,11.50
2018-02-04T15:33:55.490Z,13.30
2018-02-04T15:36:22.263Z,13.73
2018-02-04T15:38:48.869Z,12.90
2018-02-04T15:41:15.501Z,12.80
2018-02-04T15:43:42.110Z,12.80
2018-02-04T15:46:08.805Z,12.47
2018-02-04T15:48:35.421Z,12.60
2018-02-04T15:51:02.068Z,12.53
2018-02-04T15:53:28.701Z,11.77
2018-02-04T15:55:55.323Z,12.80
2018-02-04T15:58:22.008Z,12.67
2018-02-04T16:00:48.642Z,11.07
2018-02-04T16:03:15.269Z,13.10
2018-02-04T16:05:41.907Z,13.20
2018-02-04T16:08:08.546Z,12.13
2018-02-04T16:10:35.373Z,12.10
2018-02-04T16:13:02.139Z,12.07
2018-02-04T16:15:28.845Z,12.80
2018-02-04T16:17:55.529Z,12.13
2018-02-04T16:20:22.175Z,12.70
2018-02-04T16:22:48.853Z,11.80
2018-02-04T16:25:15.479Z,13.20
2018-02-04T16:27:42.066Z,12.50
2018-02-04T16:30:08.735Z,12.70
2018-02-04T16:32:35.348Z,11.80
2018-02-04T16:35:02.060Z,11.03
2018-02-04T16:37:28.723Z,13.07
2018-02-04T16:39:55.364Z,13.80
2018-02-04T16:42:22.005Z,12.83
2018-02-04T16:44:48.904Z,12.55
2018-02-04T16:47:15.537Z,12.90
2018-02-04T16:49:42.330Z,11.93
2018-02-04T16:52:09.313Z,13.00
2018-02-04T16:54:36.914Z,11.77
2018-02-04T16:57:03.555Z,12.50
2018-02-04T16:59:30.197Z,12.10
2018-02-04T17:01:57.165Z,12.87
2018-02-04T17:04:23.828Z,13.00
2018-02-04T17:06:50.473Z,12.67
2018-02-04T17:09:17.062Z,12.70
2018-02-04T17:11:43.713Z,13.67
2018-02-04T17:14:10.339Z,12.90
2018-02-04T17:16:37.080Z,12.73
2018-02-04T17:19:03.679Z,12.87
2018-02-04T17:21:30.310Z,13.17
2018-02-04T17:23:56.964Z,11.30
2018-02-04T17:26:23.596Z,11.93
2018-02-04T17:28:50.216Z,11.80
2018-02-04T17:31:16.965Z,11.60
2018-02-04T17:33:43.672Z,12.90
2018-02-04T17:36:10.272Z,11.00
2018-02-04T17:38:36.909Z,11.17
2018-02-04T17:41:03.552Z,12.00
2018-02-04T17:43:30.234Z,11.83
2018-02-04T17:45:56.874Z,11.10
2018-02-04T17:48:24.662Z,13.07
2018-02-04T17:50:51.289Z,12.27
2018-02-04T17:53:18.132Z,12.30
2018-02-04T17:55:44.761Z,10.20
2018-02-04T17:58:11.861Z,10.80
2018-02-04T18:00:38.493Z,10.40
2018-02-04T18:03:05.139Z,9.77
2018-02-04T18:05:31.806Z,9.10
2018-02-04T18:07:58.436Z,9.50
2018-02-04T18:10:25.336Z,8.60
2018-02-04T18:12:52.001Z,8.37
2018-02-04T18:15:18.725Z,8.07
2018-02-04T18:17:45.387Z,8.47
2018-02-04T18:20:12.091Z,8.60
2018-02-04T18:22:38.716Z,7.87
2018-02-04T18:25:05.593Z,9.20
2018-02-04T18:27:32.431Z,8.73
2018-02-04T18:29:59.046Z,8.50
2018-02-04T18:32:25.916Z,9.10
2018-02-04T18:34:53.040Z,8.70
2018-02-04T18:37:19.863Z,8.30
2018-02-04T18:39:47.449Z,9.60
2018-02-04T18:42:14.540Z,8.83
2018-02-04T18:44:41.800Z,9.47
2018-02-04T18:47:08.429Z,8.00
2018-02-04T18:49:35.031Z,9.40
2018-02-04T18:52:01.826Z,9.80
2018-02-04T18:54:29.207Z,9.40
2018-02-04T18:56:56.077Z,9.70
2018-02-04T18:59:22.711Z,9.90
2018-02-04T19:01:49.469Z,9.07
2018-02-04T19:04:16.222Z,8.97
2018-02-04T19:06:42.959Z,9.53
2018-02-04T19:09:09.672Z,9.80
2018-02-04T19:11:36.342Z,9.27
2018-02-04T19:14:03.671Z,9.23
2018-02-04T19:16:30.343Z,8.87
2018-02-04T19:18:56.949Z,10.90
2018-02-04T19:21:23.615Z,8.97
2018-02-04T19:23:50.285Z,9.70
2018-02-04T19:26:17.108Z,9.60
2018-02-04T19:28:43.815Z,9.50
2018-02-04T19:31:10.460Z,9.30
2018-02-04T19:33:37.133Z,8.13
2018-02-04T19:36:04.250Z,8.70
2018-02-04T19:38:30.987Z,8.80
2018-02-04T19:40:57.585Z,8.90
2018-02-04T19:43:24.321Z,8.50
2018-02-04T19:45:51.006Z,9.37
2018-02-04T19:57:57.739Z,8.07
2018-02-04T20:00:24.533Z,8.80
2018-02-04T20:02:51.586Z,8.87
2018-02-04T20:05:18.259Z,8.90
2018-02-04T20:07:45.627Z,9.63
2018-02-04T20:10:12.316Z,9.30
2018-02-04T20:12:38.923Z,8.87
2018-02-04T20:15:05.646Z,9.47
2018-02-04T20:17:32.263Z,9.97
2018-02-04T20:20:00.132Z,8.80
2018-02-04T20:22:26.953Z,8.90
2018-02-04T20:24:53.630Z,9.20
2018-02-04T20:27:20.626Z,9.83
2018-02-04T20:29:47.687Z,8.50
2018-02-04T20:32:21.777Z,9.93
2018-02-04T20:34:52.546Z,9.20
2018-02-04T20:37:19.200Z,8.73
2018-02-04T20:39:45.819Z,9.40
2018-02-04T20:42:12.561Z,9.10
2018-02-04T20:44:39.202Z,10.00
2018-02-04T20:47:05.847Z,9.40
2018-02-04T20:49:32.877Z,9.17
2018-02-04T20:51:59.505Z,9.87
2018-02-04T20:54:26.210Z,10.23
2018-02-04T20:56:52.937Z,9.57
2018-02-04T20:59:19.548Z,8.63
2018-02-04T21:01:46.533Z,10.33
2018-02-04T21:04:13.924Z,9.27
2018-02-04T21:06:40.620Z,9.90
2018-02-04T21:09:07.315Z,9.40
2018-02-04T21:11:33.945Z,10.30
2018-02-04T21:14:02.218Z,9.47
2018-02-04T21:16:29.307Z,10.53
2018-02-04T21:18:56.019Z,10.00
2018-02-04T21:21:22.667Z,9.97
2018-02-04T21:23:50.114Z,9.53
2018-02-04T21:26:16.753Z,10.07
2018-02-04T21:28:43.680Z,10.07
2018-02-04T21:31:11.228Z,10.60
2018-02-04T21:33:39.944Z,9.70
2018-02-04T21:36:06.860Z,10.07
2018-02-04T21:38:34.794Z,9.80
2018-02-04T21:41:04.376Z,8.40
2018-02-04T21:43:32.375Z,9.63
2018-02-04T21:46:00.851Z,9.37
2018-02-04T21:48:28.775Z,9.50
2018-02-04T21:50:55.442Z,9.07
2018-02-04T21:53:22.397Z,9.63
2018-02-04T21:55:54.383Z,9.93
2018-02-04T21:58:21.113Z,9.80
2018-02-04T22:00:47.959Z,9.80
2018-02-04T22:03:14.736Z,10.07
2018-02-04T22:05:42.070Z,11.10
2018-02-04T22:08:08.932Z,10.13
2018-02-04T22:10:35.728Z,9.23
2018-02-04T22:13:02.453Z,8.57
2018-02-04T22:15:29.097Z,9.47
2018-02-04T22:17:55.891Z,9.00
2018-02-04T22:20:22.565Z,10.33
2018-02-04T22:22:49.228Z,8.70
2018-02-04T22:25:16.190Z,9.20
2018-02-04T22:27:42.831Z,10.00
2018-02-04T22:30:09.412Z,9.37
2018-02-04T22:32:36.076Z,9.10
2018-02-04T22:35:02.808Z,9.73
2018-02-04T22:37:29.401Z,9.53
2018-02-04T22:39:56.089Z,10.80
2018-02-04T22:42:22.725Z,8.90
2018-02-04T22:44:49.315Z,9.37
2018-02-04T22:47:15.954Z,10.00
2018-02-04T22:49:42.974Z,9.60
2018-02-04T22:52:09.562Z,10.43
2018-02-04T22:54:36.195Z,10.77
2018-02-04T22:57:02.820Z,9.80
2018-02-04T22:59:29.460Z,10.27
2018-02-04T23:01:56.093Z,10.30
2018-02-04T23:04:22.744Z,13.53
2018-02-04T23:06:49.369Z,10.97
2018-02-04T23:09:15.997Z,10.07
2018-02-04T23:11:42.709Z,9.97
2018-02-04T23:14:09.408Z,8.90
2018-02-04T23:16:36.056Z,10.20
2018-02-04T23:19:02.774Z,10.47
2018-02-04T23:21:29.392Z,9.90
2018-02-04T23:23:56.020Z,10.20
2018-02-04T23:26:22.650Z,10.20
2018-02-04T23:28:49.248Z,10.70
2018-02-04T23:31:15.903Z,9.63
2018-02-04T23:33:42.492Z,11.27
2018-02-04T23:36:09.129Z,11.40
2018-02-04T23:38:35.747Z,10.57
2018-02-04T23:41:02.347Z,10.23
2018-02-04T23:43:28.984Z,12.00
2018-02-04T23:45:55.614Z,10.57
2018-02-04T23:48:22.250Z,10.77
2018-02-04T23:50:48.880Z,11.50
2018-02-04T23:53:15.475Z,10.10
2018-02-04T23:55:42.081Z,11.60
2018-02-04T23:58:08.745Z,11.23
